Time;durP1;ratioP1;P1;durP2;ratioP2;P2;SDS_P1;SDS_P2;PMS_P1;PMS_P2;Temp;Humidity;BMP_temperature;BMP_pressure;BME280_temperature;BME280_humidity;BME280_pressure;Samples;Min_cycle;Max_cycle;Signal;HPM_P1;HPM_P2
2022/03/24 00:00:43;;;;;;;18.37;14.50;;;;;;;2.34;62.16;93557.44;5046305;28;20185;-77
2022/03/24 00:03:08;;;;;;;13.27;12.00;;;;;;;2.46;61.95;93581.56;5048997;28;20193;-77
2022/03/24 00:05:37;;;;;;;14.90;13.13;;;;;;;2.39;63.06;93578.22;5048229;28;20212;-77
2022/03/24 00:08:02;;;;;;;15.07;13.43;;;;;;;2.44;62.29;93568.91;5047999;28;20198;-77
2022/03/24 00:10:29;;;;;;;15.67;13.60;;;;;;;2.42;62.33;93568.31;5048937;28;20233;-77
2022/03/24 00:12:55;;;;;;;15.10;13.63;;;;;;;2.19;62.09;93528.59;5048723;28;20166;-77
2022/03/24 00:15:21;;;;;;;14.63;13.10;;;;;;;2.61;61.41;93566.63;5048528;28;20237;-76
2022/03/24 00:17:46;;;;;;;16.03;12.23;;;;;;;2.37;61.50;93529.47;5048812;28;20260;-77
2022/03/24 00:20:12;;;;;;;13.67;12.27;;;;;;;2.48;61.70;93553.78;5047304;28;20229;-76
2022/03/24 00:22:39;;;;;;;15.17;13.57;;;;;;;2.60;61.63;93549.59;5048401;28;20232;-77
2022/03/24 00:25:05;;;;;;;15.53;12.70;;;;;;;2.29;62.11;93508.34;5051234;28;20230;-77
2022/03/24 00:27:31;;;;;;;14.73;13.43;;;;;;;2.48;61.83;93543.50;5052567;28;20217;-77
2022/03/24 00:29:57;;;;;;;15.93;13.93;;;;;;;2.51;61.74;93540.50;5049763;28;20230;-77
2022/03/24 00:32:22;;;;;;;14.67;13.13;;;;;;;2.62;61.43;93538.06;5053215;28;20192;-77
2022/03/24 00:34:48;;;;;;;14.20;12.87;;;;;;;2.54;62.36;93527.19;5050254;28;20232;-77
2022/03/24 00:37:14;;;;;;;14.30;12.43;;;;;;;2.48;61.79;93536.56;5053566;28;20202;-77
2022/03/24 00:39:41;;;;;;;14.13;12.63;;;;;;;2.31;62.60;93521.78;5051605;28;20229;-77
2022/03/24 00:42:08;;;;;;;14.23;12.93;;;;;;;2.43;62.04;93527.88;5053344;28;20186;-77
2022/03/24 00:44:35;;;;;;;14.40;12.90;;;;;;;2.39;62.85;93529.28;5051120;28;20230;-77
2022/03/24 00:47:00;;;;;;;14.07;12.57;;;;;;;2.22;62.81;93476.66;5052743;28;20190;-77
2022/03/24 00:49:26;;;;;;;20.83;13.93;;;;;;;2.43;63.46;93520.16;5052071;28;20252;-76
2022/03/24 00:51:52;;;;;;;12.80;11.33;;;;;;;2.48;63.39;93522.88;5053094;28;20193;-77
2022/03/24 00:54:18;;;;;;;14.67;12.17;;;;;;;2.52;63.54;93518.91;5051949;28;20289;-77
2022/03/24 00:56:45;;;;;;;14.13;12.17;;;;;;;2.41;63.44;93511.81;5051470;28;20206;-77
2022/03/24 00:59:11;;;;;;;14.30;12.67;;;;;;;2.29;63.40;93498.81;5051879;28;20237;-77
2022/03/24 01:01:39;;;;;;;14.93;13.50;;;;;;;2.17;64.96;93486.78;5045544;28;20194;-77
2022/03/24 01:04:06;;;;;;;18.67;14.33;;;;;;;2.32;64.59;93507.91;5051533;28;20221;-77
2022/03/24 01:06:33;;;;;;;17.20;15.47;;;;;;;2.24;64.89;93503.00;5050803;28;20198;-77
2022/03/24 01:08:58;;;;;;;15.77;13.00;;;;;;;2.24;64.55;93505.59;5052050;28;20229;-77
2022/03/24 01:11:24;;;;;;;18.10;14.60;;;;;;;2.07;65.56;93479.50;5051175;28;20212;-77
2022/03/24 01:13:49;;;;;;;18.23;13.60;;;;;;;2.06;64.86;93477.91;5051274;28;20238;-77
2022/03/24 01:16:15;;;;;;;14.57;13.17;;;;;;;1.96;65.04;93461.34;5051345;28;20228;-77
2022/03/24 01:18:41;;;;;;;13.60;12.40;;;;;;;1.90;65.09;93470.66;5051764;28;20241;-77
2022/03/24 01:21:07;;;;;;;13.83;12.43;;;;;;;1.94;66.00;93497.59;5051796;28;20293;-77
2022/03/24 01:23:33;;;;;;;16.87;12.50;;;;;;;1.93;66.10;93495.22;5050462;28;20237;-77
2022/03/24 01:26:00;;;;;;;14.53;13.03;;;;;;;1.89;65.64;93506.91;5051520;28;20186;-77
2022/03/24 01:28:27;;;;;;;19.97;13.13;;;;;;;1.78;65.75;93499.81;5051223;28;20236;-76
2022/03/24 01:30:53;;;;;;;20.57;14.77;;;;;;;1.78;64.52;93510.13;5051991;28;20183;-77
2022/03/24 01:33:19;;;;;;;86.20;34.97;;;;;;;1.78;64.34;93492.09;5051045;28;20186;-77
2022/03/24 01:35:45;;;;;;;70.93;31.90;;;;;;;1.56;65.10;93484.66;5050498;28;20241;-77
2022/03/24 01:38:10;;;;;;;46.90;22.83;;;;;;;1.77;64.78;93500.81;5051672;28;20275;-77
2022/03/24 01:40:36;;;;;;;49.23;23.70;;;;;;;1.89;65.40;93494.84;5051067;28;20197;-77
2022/03/24 01:43:02;;;;;;;17.50;15.00;;;;;;;1.80;65.65;93484.97;5051866;28;20556;-77
2022/03/24 01:45:27;;;;;;;22.07;14.40;;;;;;;1.81;65.90;93484.75;5050849;28;20237;-77
2022/03/24 01:47:53;;;;;;;15.80;11.90;;;;;;;1.50;66.39;93441.72;5052003;28;20202;-77
2022/03/24 01:50:19;;;;;;;14.43;12.97;;;;;;;1.64;66.38;93471.56;5050134;28;20272;-77
2022/03/24 01:52:45;;;;;;;13.90;12.53;;;;;;;1.58;67.13;93458.72;5051773;28;20197;-77
2022/03/24 01:55:13;;;;;;;15.33;12.87;;;;;;;1.17;67.49;93424.81;5049787;28;20229;-77
2022/03/24 01:57:40;;;;;;;15.70;12.47;;;;;;;1.39;67.50;93469.84;5051013;28;20190;-77
2022/03/24 02:00:07;;;;;;;15.50;12.97;;;;;;;1.40;65.99;93451.66;5049263;28;20241;-77
2022/03/24 02:02:33;;;;;;;17.57;12.60;;;;;;;1.56;66.18;93453.78;5050695;28;20190;-77
2022/03/24 02:04:58;;;;;;;14.00;12.70;;;;;;;1.61;66.05;93433.38;5050424;28;20238;-77
2022/03/24 02:07:24;;;;;;;14.53;13.17;;;;;;;1.32;66.09;93433.09;5051201;28;20189;-77
2022/03/24 02:09:49;;;;;;;13.90;12.57;;;;;;;1.52;67.09;93459.53;5050965;28;20240;-79
2022/03/24 02:12:15;;;;;;;15.40;13.77;;;;;;;1.46;68.97;93473.97;5050775;28;20214;-76
2022/03/24 02:14:41;;;;;;;15.67;12.40;;;;;;;1.49;67.85;93465.09;5049804;28;20264;-75
2022/03/24 02:17:07;;;;;;;15.93;12.83;;;;;;;1.33;68.37;93471.47;5049142;28;20218;-76
2022/03/24 02:19:36;;;;;;;15.13;13.60;;;;;;;1.27;69.03;93462.00;5049289;28;20241;-75
2022/03/24 02:22:16;;;;;;;14.87;13.30;;;;;;;1.42;68.67;93469.44;5050769;28;20190;-75
2022/03/24 02:24:43;;;;;;;17.40;13.77;;;;;;;1.30;69.25;93465.94;5049547;28;20245;-75
2022/03/24 02:27:10;;;;;;;16.20;13.47;;;;;;;1.04;71.20;93460.84;5048429;28;20214;-76
2022/03/24 02:29:36;;;;;;;18.00;14.83;;;;;;;1.26;69.97;93452.66;5051331;28;20229;-76
2022/03/24 02:32:07;;;;;;;21.43;15.20;;;;;;;1.29;69.53;93454.84;5049571;28;20253;-75
2022/03/24 02:34:37;;;;;;;25.63;15.63;;;;;;;1.26;69.01;93457.81;5050578;28;20230;-76
2022/03/24 02:37:08;;;;;;;31.23;18.03;;;;;;;1.13;68.26;93434.72;5049715;28;20206;-76
2022/03/24 02:39:36;;;;;;;39.73;20.03;;;;;;;1.31;67.37;93457.22;5050413;28;20241;-76
2022/03/24 02:42:02;;;;;;;32.07;18.10;;;;;;;1.44;66.65;93460.56;5050137;28;20202;-76
2022/03/24 02:44:32;;;;;;;24.97;15.30;;;;;;;1.58;67.25;93471.59;5050612;28;20225;-76
2022/03/24 02:47:02;;;;;;;18.77;13.80;;;;;;;0.99;67.95;93396.38;5049791;28;20190;-76
2022/03/24 02:49:31;;;;;;;19.30;14.33;;;;;;;1.50;67.97;93453.78;5050184;28;20237;-76
2022/03/24 02:51:58;;;;;;;17.70;14.80;;;;;;;1.44;68.36;93452.84;5049593;28;20240;-76
2022/03/24 02:54:26;;;;;;;16.93;15.33;;;;;;;1.38;68.81;93453.66;5050200;28;20238;-76
2022/03/24 02:56:51;;;;;;;16.07;14.60;;;;;;;1.76;68.05;93450.34;5049921;28;20237;-75
2022/03/24 02:59:17;;;;;;;17.67;14.23;;;;;;;1.49;68.35;93447.09;5049500;28;20237;-76
2022/03/24 03:01:50;;;;;;;16.43;14.50;;;;;;;1.26;68.59;93439.81;5050627;28;20210;-76
2022/03/24 03:04:15;;;;;;;19.87;13.93;;;;;;;1.07;69.87;93440.66;5047898;28;20336;-75
2022/03/24 03:06:42;;;;;;;15.90;13.80;;;;;;;1.17;69.32;93450.50;5049921;28;20182;-76
2022/03/24 03:09:07;;;;;;;15.90;14.20;;;;;;;1.05;68.98;93422.06;5049605;28;20219;-76
2022/03/24 03:11:33;;;;;;;15.13;13.60;;;;;;;1.23;69.28;93445.38;5049470;28;20184;-75
2022/03/24 03:14:00;;;;;;;15.90;13.27;;;;;;;1.31;69.12;93442.56;5048582;28;20245;-76
2022/03/24 03:16:26;;;;;;;16.50;14.13;;;;;;;1.10;69.68;93427.41;5050008;28;20222;-75
2022/03/24 03:18:53;;;;;;;15.20;13.73;;;;;;;1.24;70.55;93451.31;5049363;28;20233;-76
2022/03/24 03:21:19;;;;;;;15.93;14.53;;;;;;;1.08;71.28;93431.16;5047923;28;20186;-76
2022/03/24 03:23:45;;;;;;;14.87;13.33;;;;;;;1.13;71.40;93449.34;5049153;28;20230;-75
2022/03/24 03:26:12;;;;;;;16.67;14.80;;;;;;;1.07;71.34;93450.97;5049842;28;20225;-76
2022/03/24 03:28:39;;;;;;;17.33;14.30;;;;;;;1.14;70.72;93456.06;5046736;28;20232;-76
2022/03/24 03:31:05;;;;;;;16.10;14.43;;;;;;;1.11;71.38;93457.25;5049338;28;20198;-75
2022/03/24 03:33:33;;;;;;;16.63;14.33;;;;;;;1.10;71.05;93454.91;5048671;28;20221;-75
2022/03/24 03:35:59;;;;;;;15.47;13.83;;;;;;;0.96;72.45;93454.13;5049695;28;20210;-76
2022/03/24 03:38:26;;;;;;;19.03;15.43;;;;;;;1.02;71.19;93458.47;5047080;28;20321;-76
2022/03/24 03:40:53;;;;;;;18.33;14.07;;;;;;;1.00;70.86;93452.72;5049610;28;20201;-76
2022/03/24 03:43:19;;;;;;;15.77;14.23;;;;;;;0.94;69.87;93440.69;5047826;28;20198;-75
2022/03/24 03:45:45;;;;;;;22.60;15.13;;;;;;;0.97;70.09;93450.56;5048953;28;20249;-76
2022/03/24 03:48:11;;;;;;;17.57;15.63;;;;;;;0.92;70.07;93442.66;5047037;28;21020;-76
2022/03/24 03:50:39;;;;;;;17.77;15.97;;;;;;;0.98;69.80;93430.78;5049541;28;20201;-75
2022/03/24 03:53:05;;;;;;;19.63;16.73;;;;;;;0.96;69.99;93443.06;5048601;28;20198;-76
2022/03/24 03:55:30;;;;;;;19.27;14.30;;;;;;;0.97;70.58;93442.06;5049092;28;20225;-76
2022/03/24 03:57:56;;;;;;;20.57;14.47;;;;;;;0.88;70.71;93435.53;5046902;28;20182;-76
2022/03/24 04:03:05;;;;;;;16.00;14.27;;;;;;;0.75;72.17;93436.34;5048396;28;20204;-76
2022/03/24 04:05:32;;;;;;;17.93;14.63;;;;;;;0.51;72.10;93416.41;5048969;28;20194;-76
2022/03/24 04:07:58;;;;;;;20.40;15.60;;;;;;;0.82;72.37;93447.41;5048796;28;20213;-76
2022/03/24 04:10:26;;;;;;;17.17;15.27;;;;;;;0.87;72.00;93457.09;5048949;28;20230;-76
2022/03/24 04:12:52;;;;;;;16.20;14.43;;;;;;;0.65;72.09;93440.31;5046976;28;20186;-76
2022/03/24 04:15:18;;;;;;;15.90;14.23;;;;;;;0.89;71.79;93453.34;5048765;28;20240;-76
2022/03/24 04:17:43;;;;;;;16.87;13.67;;;;;;;0.97;71.33;93447.19;5045387;28;20258;-76
2022/03/24 04:20:10;;;;;;;16.50;14.90;;;;;;;0.84;71.91;93448.00;5048050;28;20252;-76
2022/03/24 04:22:36;;;;;;;15.50;13.90;;;;;;;0.96;71.27;93449.00;5046772;28;20962;-76
2022/03/24 04:25:02;;;;;;;21.43;14.67;;;;;;;0.82;70.64;93437.16;5048368;28;20233;-76
2022/03/24 04:27:28;;;;;;;19.63;15.77;;;;;;;0.85;70.49;93431.59;5046419;28;20221;-76
2022/03/24 04:29:53;;;;;;;21.17;18.30;;;;;;;0.98;69.95;93447.00;5047034;28;20450;-76
2022/03/24 04:32:19;;;;;;;27.40;17.77;;;;;;;1.06;69.95;93446.78;5048556;28;20198;-76
2022/03/24 04:34:45;;;;;;;24.10;17.87;;;;;;;1.29;68.77;93439.41;5046518;28;20222;-76
2022/03/24 04:37:11;;;;;;;18.87;16.37;;;;;;;1.26;68.63;93434.66;5049234;28;20190;-75
2022/03/24 04:39:36;;;;;;;17.20;15.30;;;;;;;1.49;68.52;93450.44;5039325;28;20226;-76
2022/03/24 04:42:03;;;;;;;18.77;15.13;;;;;;;1.57;67.67;93447.63;5048874;28;20201;-75
2022/03/24 04:44:29;;;;;;;20.63;15.57;;;;;;;1.65;65.76;93428.59;5046762;28;20291;-82
2022/03/24 04:46:54;;;;;;;18.90;15.60;;;;;;;1.66;65.14;93414.75;5048809;28;20206;-78
2022/03/24 04:49:19;;;;;;;23.53;15.97;;;;;;;2.08;64.72;93441.66;5048261;28;20236;-76
2022/03/24 04:51:45;;;;;;;24.70;16.23;;;;;;;2.17;61.49;93448.16;5049210;28;20186;-77
2022/03/24 04:54:10;;;;;;;23.23;16.87;;;;;;;2.39;61.65;93459.72;5047756;28;20257;-78
2022/03/24 04:56:36;;;;;;;23.13;16.77;;;;;;;2.35;61.38;93436.13;5048608;28;20210;-81
2022/03/24 04:59:01;;;;;;;19.47;16.73;;;;;;;2.50;61.78;93457.25;5048548;28;20268;-76
2022/03/24 05:01:27;;;;;;;21.00;16.97;;;;;;;2.50;61.47;93438.44;5049398;28;20190;-76
2022/03/24 05:03:52;;;;;;;24.73;17.33;;;;;;;2.67;62.32;93463.47;5048244;28;20222;-76
2022/03/24 05:06:18;;;;;;;22.07;16.00;;;;;;;2.65;61.61;93462.91;5048271;28;20215;-83
2022/03/24 05:08:44;;;;;;;21.13;16.40;;;;;;;2.71;62.32;93454.31;5046789;28;20238;-76
2022/03/24 05:11:09;;;;;;;26.27;17.80;;;;;;;2.71;61.93;93450.94;5051090;28;20661;-85
2022/03/24 05:13:35;;;;;;;25.00;16.97;;;;;;;2.77;62.30;93461.22;5051516;28;20311;-81
2022/03/24 05:16:00;;;;;;;21.70;16.53;;;;;;;2.92;62.13;93466.84;5052165;28;20222;-75
2022/03/24 05:18:25;;;;;;;21.90;16.93;;;;;;;2.95;60.93;93458.69;5051653;28;20234;-76
2022/03/24 05:20:54;;;;;;;30.87;17.70;;;;;;;3.03;61.53;93460.22;5051768;28;20190;-77
2022/03/24 05:23:19;;;;;;;37.27;21.67;;;;;;;2.91;63.52;93456.75;5050574;28;20174;-76
2022/03/24 05:25:48;;;;;;;41.03;23.03;;;;;;;3.04;63.48;93454.03;5050365;28;20174;-75
2022/03/24 05:28:15;;;;;;;44.97;24.57;;;;;;;2.96;64.48;93456.88;5050925;28;20205;-83
2022/03/24 05:30:41;;;;;;;33.13;19.47;;;;;;;2.98;59.82;93405.91;5051605;28;20174;-78
2022/03/24 05:33:06;;;;;;;31.40;18.30;;;;;;;3.49;58.93;93459.78;5051085;28;20231;-77
2022/03/24 05:35:35;;;;;;;26.57;17.50;;;;;;;3.57;56.52;93457.69;5050778;28;20214;-79
2022/03/24 05:38:02;;;;;;;22.67;17.73;;;;;;;3.66;56.17;93466.72;5052037;28;20190;-78
2022/03/24 05:40:27;;;;;;;40.13;18.67;;;;;;;3.48;56.89;93443.50;5051046;28;20225;-80
2022/03/24 05:42:53;;;;;;;31.50;21.03;;;;;;;3.49;57.09;93459.78;5052040;28;20195;-79
2022/03/24 05:45:18;;;;;;;31.33;19.70;;;;;;;3.43;57.57;93460.63;5051404;28;20229;-78
2022/03/24 05:47:44;;;;;;;32.30;20.27;;;;;;;3.75;56.20;93460.25;5052015;28;20232;-80
2022/03/24 05:50:10;;;;;;;32.03;19.47;;;;;;;3.84;56.04;93453.81;5049983;28;20235;-79
2022/03/24 05:52:36;;;;;;;31.97;20.03;;;;;;;3.75;56.18;93460.25;5039457;28;20179;-79
2022/03/24 05:55:02;;;;;;;34.33;21.67;;;;;;;3.94;55.89;93453.31;5050806;28;20246;-79
2022/03/24 05:57:27;;;;;;;42.43;22.20;;;;;;;4.05;55.39;93455.13;5051791;28;20228;-79
2022/03/24 05:59:53;;;;;;;37.40;22.27;;;;;;;4.16;55.37;93446.66;5051866;28;20222;-78
2022/03/24 06:02:20;;;;;;;51.50;23.63;;;;;;;4.14;55.59;93443.50;5051152;28;20186;-80
2022/03/24 06:04:47;;;;;;;45.33;24.93;;;;;;;4.18;56.17;93445.44;5048581;28;20218;-79
2022/03/24 06:07:14;;;;;;;37.73;23.83;;;;;;;4.48;55.30;93448.78;5051428;28;20194;-80
2022/03/24 06:09:39;;;;;;;39.77;24.37;;;;;;;4.35;56.49;93461.91;5050679;28;20230;-78
2022/03/24 06:12:08;;;;;;;43.33;24.43;;;;;;;3.95;55.83;93398.84;5051412;28;20201;-79
2022/03/24 06:14:35;;;;;;;38.40;24.63;;;;;;;4.11;56.25;93469.78;5049892;28;20222;-80
2022/03/24 06:17:01;;;;;;;38.43;23.57;;;;;;;4.32;56.92;93461.53;5043227;28;20250;-79
2022/03/24 06:19:27;;;;;;;39.03;23.53;;;;;;;4.25;56.37;93471.97;5049704;28;20289;-79
2022/03/24 06:21:52;;;;;;;34.77;22.67;;;;;;;4.42;55.16;93472.94;5048874;28;20463;-77
2022/03/24 06:24:18;;;;;;;39.47;23.17;;;;;;;4.68;55.30;93464.81;5050042;28;20369;-79
2022/03/24 06:26:43;;;;;;;46.40;25.07;;;;;;;4.87;54.39;93471.47;5051026;28;20221;-79
2022/03/24 06:29:11;;;;;;;42.47;25.30;;;;;;;4.66;55.57;93463.44;5051109;28;20343;-80
2022/03/24 06:31:37;;;;;;;35.17;24.50;;;;;;;4.59;57.62;93448.03;5050434;28;20201;-80
2022/03/24 06:34:02;;;;;;;43.20;24.80;;;;;;;4.58;54.82;93418.00;5050555;28;20226;-77
2022/03/24 06:36:28;;;;;;;39.07;23.80;;;;;;;5.13;54.77;93469.47;5050701;28;20221;-79
2022/03/24 06:38:54;;;;;;;36.97;25.23;;;;;;;4.96;52.65;93438.31;5050347;28;20249;-81
2022/03/24 06:41:19;;;;;;;40.20;24.53;;;;;;;5.24;53.07;93458.34;5050371;28;20190;-91
2022/03/24 06:43:46;;;;;;;46.03;26.63;;;;;;;5.48;51.93;93471.06;5046715;28;20222;-76
2022/03/24 06:46:12;;;;;;;40.63;25.13;;;;;;;5.27;51.88;93424.25;5049756;28;20205;-77
2022/03/24 06:48:37;;;;;;;38.73;25.50;;;;;;;5.78;52.15;93453.56;5049566;28;20226;-76
2022/03/24 06:51:04;;;;;;;41.63;25.90;;;;;;;6.04;51.02;93465.25;5050050;28;20193;-77
2022/03/24 06:53:30;;;;;;;38.97;25.93;;;;;;;5.79;50.87;93456.97;5047686;28;20244;-76
2022/03/24 06:55:55;;;;;;;40.23;25.47;;;;;;;5.98;50.67;93476.53;5049953;28;20214;-77
2022/03/24 06:58:22;;;;;;;43.03;25.00;;;;;;;6.04;51.34;93471.22;5046068;28;20174;-76
2022/03/24 07:00:48;;;;;;;38.07;24.03;;;;;;;6.35;50.22;93463.00;5046856;28;20198;-78
2022/03/24 07:03:13;;;;;;;40.83;24.20;;;;;;;6.58;49.38;93443.97;5048037;28;20190;-76
2022/03/24 07:05:39;;;;;;;43.50;25.23;;;;;;;6.64;49.65;93468.19;5047096;28;21140;-76
2022/03/24 07:08:04;;;;;;;46.33;26.87;;;;;;;6.53;50.47;93467.22;5047033;28;20285;-76
2022/03/24 07:10:31;;;;;;;51.80;25.63;;;;;;;6.60;50.34;93467.09;5046471;28;20337;-76
2022/03/24 07:12:56;;;;;;;40.93;24.67;;;;;;;7.03;48.58;93464.69;5046859;28;20216;-76
2022/03/24 07:15:23;;;;;;;36.50;24.43;;;;;;;7.06;48.53;93459.81;5046725;28;20230;-74
2022/03/24 07:17:48;;;;;;;39.30;26.80;;;;;;;7.17;48.02;93458.97;5044702;28;20226;-78
2022/03/24 07:20:14;;;;;;;43.10;24.87;;;;;;;7.18;47.65;93464.91;5048298;28;20240;-82
2022/03/24 07:22:39;;;;;;;37.17;24.87;;;;;;;7.14;47.80;93469.03;5042719;28;20215;-77
2022/03/24 07:25:07;;;;;;;35.40;25.03;;;;;;;7.36;46.78;93477.69;5044136;28;20240;-77
2022/03/24 07:27:35;;;;;;;53.00;26.73;;;;;;;7.44;47.08;93465.06;5047032;28;20214;-77
2022/03/24 07:30:02;;;;;;;36.53;24.97;;;;;;;7.56;46.81;93476.16;5048699;28;20237;-77
2022/03/24 07:32:28;;;;;;;45.57;23.57;;;;;;;7.51;46.98;93455.31;5046878;28;20249;-77
2022/03/24 07:34:54;;;;;;;28.70;21.90;;;;;;;7.67;44.32;93474.50;5048568;28;20253;-76
2022/03/24 07:37:19;;;;;;;47.83;23.27;;;;;;;7.44;45.32;93446.09;5049604;28;20193;-77
2022/03/24 07:39:44;;;;;;;36.13;23.07;;;;;;;7.48;44.87;93471.38;5047552;28;20374;-77
2022/03/24 07:42:10;;;;;;;41.00;24.30;;;;;;;7.83;44.65;93481.44;5047370;28;20208;-78
2022/03/24 07:44:35;;;;;;;34.63;22.23;;;;;;;7.91;47.18;93476.63;5048045;28;20245;-78
2022/03/24 07:47:01;;;;;;;33.13;23.47;;;;;;;8.22;42.96;93456.97;5048539;28;20208;-77
2022/03/24 07:49:26;;;;;;;37.63;23.50;;;;;;;8.13;44.18;93467.03;5047490;28;20225;-77
2022/03/24 07:51:52;;;;;;;43.73;22.70;;;;;;;8.17;43.64;93477.75;5048524;28;20186;-78
2022/03/24 07:54:40;;;;;;;43.60;24.80;;;;;;;8.36;43.55;93453.00;5048704;28;20237;-76
2022/03/24 07:57:05;;;;;;;38.80;22.77;;;;;;;8.60;42.64;93474.34;5048927;28;20213;-77
2022/03/24 07:59:31;;;;;;;33.70;23.57;;;;;;;8.52;43.22;93477.38;5047184;28;20242;-78
2022/03/24 08:01:56;;;;;;;36.53;23.00;;;;;;;8.53;43.65;93476.34;5049750;28;20186;-77
2022/03/24 08:04:22;;;;;;;41.43;24.00;;;;;;;8.61;43.55;93450.66;5047592;28;20232;-77
2022/03/24 08:06:47;;;;;;;40.57;24.43;;;;;;;8.85;43.25;93467.56;5049168;28;20198;-77
2022/03/24 08:09:12;;;;;;;40.93;23.53;;;;;;;9.03;42.71;93469.00;5048060;28;20233;-77
2022/03/24 08:11:38;;;;;;;41.90;22.73;;;;;;;9.07;41.81;93476.09;5049045;28;20241;-75
2022/03/24 08:14:03;;;;;;;35.47;22.10;;;;;;;9.04;42.13;93476.56;5048053;28;20294;-76
2022/03/24 08:16:30;;;;;;;39.67;23.33;;;;;;;9.09;40.91;93474.00;5048500;28;20217;-76
2022/03/24 08:18:56;;;;;;;35.27;24.10;;;;;;;9.24;41.05;93471.56;5045632;28;20241;-75
2022/03/24 08:21:21;;;;;;;41.13;24.90;;;;;;;9.31;41.30;93464.31;5047205;28;20194;-76
2022/03/24 08:23:47;;;;;;;37.70;24.83;;;;;;;9.56;40.90;93474.91;5047069;28;20232;-76
2022/03/24 08:26:13;;;;;;;33.90;23.90;;;;;;;9.56;40.74;93468.91;5048471;28;20208;-75
2022/03/24 08:28:39;;;;;;;35.50;25.67;;;;;;;9.64;41.81;93471.84;5047307;28;20302;-76
2022/03/24 08:31:04;;;;;;;42.73;24.90;;;;;;;9.47;40.79;93459.97;5047860;28;20673;-75
2022/03/24 08:33:30;;;;;;;33.97;24.77;;;;;;;9.79;40.45;93471.13;5046033;28;20979;-76
2022/03/24 08:35:55;;;;;;;46.13;24.03;;;;;;;9.79;41.85;93463.31;5045714;28;20229;-76
2022/03/24 08:38:21;;;;;;;35.67;23.50;;;;;;;9.86;40.53;93469.09;5047453;28;20194;-76
2022/03/24 08:40:47;;;;;;;36.73;23.07;;;;;;;9.94;41.88;93452.97;5047685;28;20208;-75
2022/03/24 08:43:14;;;;;;;35.70;21.27;;;;;;;10.07;40.01;93470.78;5048500;28;20190;-75
2022/03/24 08:45:39;;;;;;;34.40;21.87;;;;;;;10.42;39.27;93447.44;5051525;28;20209;-76
2022/03/24 08:48:06;;;;;;;38.10;21.77;;;;;;;10.29;39.24;93450.53;5051516;28;20190;-75
2022/03/24 08:50:33;;;;;;;29.70;21.27;;;;;;;10.53;39.80;93456.09;5050460;28;20194;-77
2022/03/24 08:52:59;;;;;;;32.60;19.40;;;;;;;10.55;39.19;93446.19;5051518;28;20204;-77
2022/03/24 08:55:25;;;;;;;28.70;19.77;;;;;;;10.77;40.22;93455.38;5051420;28;20225;-76
2022/03/24 08:57:50;;;;;;;37.47;20.50;;;;;;;10.97;39.38;93465.84;5052233;28;20242;-75
2022/03/24 09:00:17;;;;;;;22.70;18.43;;;;;;;11.29;38.18;93455.94;5051811;28;20266;-76
2022/03/24 09:02:47;;;;;;;24.27;17.23;;;;;;;11.41;38.86;93441.81;5051135;28;20182;-76
2022/03/24 09:05:13;;;;;;;21.40;15.93;;;;;;;11.30;37.69;93413.06;5051606;28;20225;-75
2022/03/24 09:07:39;;;;;;;21.33;15.23;;;;;;;11.61;37.12;93455.66;5051290;28;20224;-75
2022/03/24 09:10:06;;;;;;;19.43;13.67;;;;;;;11.71;36.94;93437.38;5050857;28;20234;-76
2022/03/24 09:12:34;;;;;;;17.57;14.07;;;;;;;11.79;36.87;93451.72;5052208;28;20190;-76
2022/03/24 09:15:00;;;;;;;19.40;14.57;;;;;;;11.53;35.52;93390.81;5051238;28;20226;-77
2022/03/24 09:17:26;;;;;;;16.40;13.37;;;;;;;11.84;35.60;93433.41;5051542;28;20234;-77
2022/03/24 09:19:51;;;;;;;14.70;13.13;;;;;;;12.07;34.54;93444.09;5050770;28;20226;-77
2022/03/24 09:22:17;;;;;;;22.00;13.63;;;;;;;11.90;34.20;93443.59;5052356;28;20190;-78
2022/03/24 09:24:42;;;;;;;15.07;13.67;;;;;;;11.77;34.32;93438.13;5051538;28;20226;-77
2022/03/24 09:27:08;;;;;;;16.30;13.17;;;;;;;12.03;34.08;93439.66;5050793;28;20191;-78
2022/03/24 09:29:33;;;;;;;17.77;13.93;;;;;;;12.19;33.80;93438.53;5051599;28;20729;-78
2022/03/24 09:31:59;;;;;;;15.80;14.20;;;;;;;12.37;33.40;93417.00;5052244;28;20187;-78
2022/03/24 09:34:25;;;;;;;15.40;13.47;;;;;;;12.59;34.58;93427.91;5050684;28;20230;-79
2022/03/24 09:36:50;;;;;;;22.97;14.23;;;;;;;12.47;32.77;93432.66;5051083;28;20222;-80
2022/03/24 09:39:16;;;;;;;18.07;12.83;;;;;;;12.48;31.43;93421.13;5050347;28;20221;-78
2022/03/24 09:41:46;;;;;;;15.47;13.87;;;;;;;12.45;31.13;93429.53;5049947;28;20182;-78
2022/03/24 09:44:11;;;;;;;14.83;13.43;;;;;;;12.56;31.63;93402.25;5049135;28;20234;-77
2022/03/24 09:46:38;;;;;;;19.10;13.97;;;;;;;12.69;30.16;93409.47;5050316;28;20207;-74
2022/03/24 09:49:04;;;;;;;16.47;13.17;;;;;;;12.85;31.26;93418.81;5050439;28;20218;-78
2022/03/24 09:51:30;;;;;;;16.63;13.13;;;;;;;12.89;30.34;93404.09;5050346;28;20218;-79
2022/03/24 09:53:56;;;;;;;14.93;13.60;;;;;;;13.04;29.85;93416.38;5050308;28;20240;-80
2022/03/24 09:56:23;;;;;;;13.77;12.47;;;;;;;13.09;29.45;93414.47;5048954;28;20214;-79
2022/03/24 09:58:49;;;;;;;14.57;13.10;;;;;;;13.01;29.62;93411.66;5049773;28;20230;-80
2022/03/24 10:01:15;;;;;;;15.30;12.77;;;;;;;13.05;29.26;93413.47;5049414;28;20214;-80
2022/03/24 10:04:11;;;;;;;16.43;12.93;;;;;;;13.13;30.38;93412.88;5047908;28;20228;-81
2022/03/24 10:06:39;;;;;;;19.23;13.53;;;;;;;13.22;27.55;93408.63;5048135;28;20193;-81
2022/03/24 10:09:06;;;;;;;17.43;15.17;;;;;;;13.33;28.30;93410.09;5049338;28;20222;-80
2022/03/24 10:11:35;;;;;;;14.67;13.37;;;;;;;13.35;27.78;93387.00;5049966;28;20260;-78
2022/03/24 10:14:01;;;;;;;16.23;13.33;;;;;;;13.25;28.15;93392.34;5050307;28;20230;-80
2022/03/24 10:16:33;;;;;;;18.53;12.93;;;;;;;13.33;28.37;93404.06;5050126;28;20233;-85
2022/03/24 10:19:01;;;;;;;14.53;13.23;;;;;;;13.42;27.05;93397.94;5049010;28;20242;-84
2022/03/24 10:21:31;;;;;;;15.10;13.70;;;;;;;13.62;25.00;93395.13;5051162;28;20190;-85
2022/03/24 10:24:00;;;;;;;13.10;12.10;;;;;;;13.51;26.08;93385.03;5050440;28;20221;-84
2022/03/24 10:26:43;;;;;;;14.43;13.13;;;;;;;13.63;24.86;93393.31;5051324;28;21237;-85
2022/03/24 10:29:11;;;;;;;13.03;11.80;;;;;;;13.32;24.52;93355.31;5048797;28;20217;-84
2022/03/24 10:31:37;;;;;;;16.03;13.60;;;;;;;13.61;25.91;93390.16;5050371;28;20284;-86
2022/03/24 10:34:03;;;;;;;15.47;12.40;;;;;;;13.51;24.90;93385.78;5050479;28;20225;-83
2022/03/24 10:36:30;;;;;;;18.30;13.03;;;;;;;13.61;25.11;93351.59;5050722;28;20273;-85
2022/03/24 10:39:01;;;;;;;12.87;11.63;;;;;;;13.75;25.22;93381.38;5049864;28;20226;-86
2022/03/24 10:41:29;;;;;;;14.90;12.97;;;;;;;13.85;25.53;93373.38;5051406;28;20178;-83
2022/03/24 10:44:04;;;;;;;12.67;11.57;;;;;;;13.67;25.59;93362.81;5048125;28;20267;-84
2022/03/24 10:46:32;;;;;;;15.57;12.97;;;;;;;13.68;28.00;93346.78;5049338;28;20177;-85
2022/03/24 10:49:13;;;;;;;14.10;12.67;;;;;;;13.89;25.11;93361.28;5050385;28;20226;-84
2022/03/24 10:51:45;;;;;;;14.23;13.07;;;;;;;13.82;24.51;93366.06;5043414;28;20280;-82
2022/03/24 10:54:17;;;;;;;14.60;13.10;;;;;;;13.82;25.35;93358.19;5049852;28;20238;-85
2022/03/24 10:57:13;;;;;;;14.83;13.43;;;;;;;13.93;25.22;93351.00;5049528;28;20212;-84
2022/03/24 10:59:46;;;;;;;14.63;13.17;;;;;;;13.98;24.87;93327.28;5046635;28;20673;-85
2022/03/24 11:02:13;;;;;;;15.20;13.73;;;;;;;14.16;25.21;93356.19;5050046;28;20293;-83
2022/03/24 11:04:39;;;;;;;15.00;13.50;;;;;;;14.21;24.48;93353.50;5048394;28;20218;-83
2022/03/24 11:07:04;;;;;;;14.30;12.80;;;;;;;14.01;24.92;93338.00;5049624;28;20182;-84
2022/03/24 11:09:31;;;;;;;16.23;14.53;;;;;;;14.06;25.25;93332.72;5048991;28;20226;-82
2022/03/24 11:12:22;;;;;;;14.87;13.40;;;;;;;14.44;24.77;93331.69;5048349;28;20174;-82
2022/03/24 11:14:50;;;;;;;15.37;13.87;;;;;;;14.26;24.89;93324.59;5049428;28;20221;-85
2022/03/24 11:17:17;;;;;;;15.43;13.13;;;;;;;14.31;24.84;93340.28;5049282;28;20246;-84
2022/03/24 11:19:54;;;;;;;16.23;14.73;;;;;;;14.31;25.34;93327.16;5049639;28;20230;-85
2022/03/24 11:22:20;;;;;;;15.47;12.07;;;;;;;14.34;25.17;93316.09;5048879;28;20391;-82
2022/03/24 11:24:46;;;;;;;16.77;14.20;;;;;;;14.51;25.73;93327.97;5048544;28;20229;-83